Create Tblcommutelog Verified Points Advance Search
| # | Trip ID | Id Commuter | Trip Date | Trip Num | Current Lat | Current Lng | Delta Distance | Current Time | Activity | Activity Confidence | Current Speed | |
|---|---|---|---|---|---|---|---|---|---|---|---|---|
| 70621 | 250822_788299_16460627_0607 | 788299 | (not set) | (not set) | 38.688550822394 | -77.227413291636 | 13.6119 | 2025-08-22 06:20:18 | in_vehicle | 100 | 13.218950888267 | |
| 70622 | 250822_787692_16426629_0612 | 787692 | (not set) | (not set) | 39.200089349507 | -77.258711073434 | 3.6176 | 2025-08-22 06:20:21 | in_vehicle | 100 | 8.6904431947214 | |
| 70623 | 250822_786014_16514412_0602 | 786014 | (not set) | (not set) | 39.3395849 | -76.5148414 | 15.3968 | 2025-08-22 06:20:28 | in_vehicle | 100 | 16.209643530895 | |
| 70624 | 250822_786014_16514412_0602 | 786014 | (not set) | (not set) | 39.3395849 | -76.5148414 | 15.3968 | 2025-08-22 06:20:28 | in_vehicle | 100 | 16.209643530895 | |
| 70625 | 250822_788299_16460627_0607 | 788299 | (not set) | (not set) | 38.691668469718 | -77.226807153737 | 13.8295 | 2025-08-22 06:20:30 | in_vehicle | 100 | 13.022253614312 | |
| 70626 | 250822_788299_16460627_0607 | 788299 | (not set) | (not set) | 38.691668469718 | -77.226807153737 | 13.8295 | 2025-08-22 06:20:30 | in_vehicle | 100 | 13.022253614312 | |
| 70627 | 250822_787692_16426629_0612 | 787692 | (not set) | (not set) | 39.198848648758 | -77.261195600097 | 3.776 | 2025-08-22 06:20:34 | in_vehicle | 100 | 8.6859728021315 | |
| 70628 | 250822_786014_16514412_0602 | 786014 | (not set) | (not set) | 39.3362881 | -76.5167446 | 15.6461 | 2025-08-22 06:20:39 | in_vehicle | 100 | 16.245406671614 | |
| 70629 | 250822_786014_16514412_0602 | 786014 | (not set) | (not set) | 39.3362881 | -76.5167446 | 15.6461 | 2025-08-22 06:20:39 | in_vehicle | 100 | 16.245406671614 | |
| 70630 | 250822_788299_16460627_0607 | 788299 | (not set) | (not set) | 38.694789352689 | -77.226197904669 | 14.0473 | 2025-08-22 06:20:42 | in_vehicle | 100 | 13.058016755031 | |
| 70631 | 250822_788299_16460627_0607 | 788299 | (not set) | (not set) | 38.694789352689 | -77.226197904669 | 14.0473 | 2025-08-22 06:20:42 | in_vehicle | 100 | 13.058016755031 | |
| 70632 | 250822_787692_16426629_0612 | 787692 | (not set) | (not set) | 39.197567584699 | -77.263692886932 | 3.9366 | 2025-08-22 06:20:48 | in_vehicle | 100 | 7.9662395951612 | |
| 70633 | 250822_786014_16514412_0602 | 786014 | (not set) | (not set) | 39.3330068 | -76.5194631 | 15.9152 | 2025-08-22 06:20:51 | in_vehicle | 100 | 15.986123901401 | |
| 70634 | 250822_786014_16514412_0602 | 786014 | (not set) | (not set) | 39.3330068 | -76.5194631 | 15.9152 | 2025-08-22 06:20:51 | in_vehicle | 100 | 15.986123901401 | |
| 70635 | 250822_788299_16460627_0607 | 788299 | (not set) | (not set) | 38.697912534805 | -77.225583468951 | 14.2652 | 2025-08-22 06:20:54 | in_vehicle | 100 | 13.080368717981 | |
| 70636 | 250822_788299_16460627_0607 | 788299 | (not set) | (not set) | 38.697912534805 | -77.225583468951 | 14.2652 | 2025-08-22 06:20:54 | in_vehicle | 100 | 13.080368717981 | |
| 70637 | 250822_787692_16426629_0612 | 787692 | (not set) | (not set) | 39.196210521633 | -77.266241343014 | 4.1023 | 2025-08-22 06:21:03 | in_vehicle | 100 | 7.8902429211333 | |
| 70638 | 250822_786014_16514412_0602 | 786014 | (not set) | (not set) | 39.3300367 | -76.5224762 | 16.176 | 2025-08-22 06:21:03 | in_vehicle | 100 | 15.610610923851 | |
| 70639 | 250822_786014_16514412_0602 | 786014 | (not set) | (not set) | 39.3300367 | -76.5224762 | 16.176 | 2025-08-22 06:21:03 | in_vehicle | 100 | 15.610610923851 | |
| 70640 | 250822_788299_16460627_0607 | 788299 | (not set) | (not set) | 38.701043137483 | -77.224961317729 | 14.4838 | 2025-08-22 06:21:06 | in_vehicle | 100 | 13.151894999419 |